createdAt,value
2023-04-15T00:00:18.959Z,52.31
2023-04-15T00:01:18.970Z,50.95
2023-04-15T00:02:19.102Z,57.84
2023-04-15T00:03:19.205Z,59.06
2023-04-15T00:04:18.992Z,55.74
2023-04-15T00:05:18.917Z,51.16
2023-04-15T00:06:18.912Z,54.43
2023-04-15T00:07:18.930Z,52.50
2023-04-15T00:08:18.892Z,46.95
2023-04-15T00:09:18.893Z,50.24
2023-04-15T00:10:18.879Z,43.98
2023-04-15T00:11:18.872Z,51.95
2023-04-15T00:12:18.863Z,49.14
2023-04-15T00:13:18.881Z,56.39
2023-04-15T00:14:18.854Z,54.02
2023-04-15T00:15:18.835Z,46.95
2023-04-15T00:16:18.864Z,55.59
2023-04-15T00:17:18.876Z,47.74
2023-04-15T00:18:18.844Z,51.55
2023-04-15T00:19:18.807Z,56.36
2023-04-15T00:20:18.802Z,47.54
2023-04-15T00:21:18.805Z,50.68
2023-04-15T00:22:18.784Z,47.96
2023-04-15T00:23:18.811Z,57.68
2023-04-15T00:24:18.769Z,41.83
2023-04-15T00:25:18.760Z,51.58
2023-04-15T00:26:18.759Z,42.54
2023-04-15T00:27:18.744Z,49.38
2023-04-15T00:28:18.793Z,53.78
2023-04-15T00:29:18.733Z,58.09
2023-04-15T00:30:18.733Z,48.66
2023-04-15T00:31:18.777Z,52.91
2023-04-15T00:32:18.744Z,62.25
2023-04-15T00:33:18.724Z,51.35
2023-04-15T00:34:18.696Z,47.22
2023-04-15T00:35:18.685Z,62.27
2023-04-15T00:36:18.678Z,68.81
2023-04-15T00:37:18.671Z,59.28
2023-04-15T00:38:18.683Z,59.21
2023-04-15T00:39:18.648Z,57.09
2023-04-15T00:40:18.662Z,46.23
2023-04-15T00:41:18.637Z,46.79
2023-04-15T00:42:18.632Z,59.90
2023-04-15T00:43:18.646Z,51.28
2023-04-15T00:44:18.616Z,58.45
2023-04-15T00:45:18.616Z,58.43
2023-04-15T00:46:18.687Z,49.34
2023-04-15T00:47:18.594Z,58.15
2023-04-15T00:48:18.616Z,51.84
2023-04-15T00:49:18.577Z,47.71
2023-04-15T00:50:18.586Z,52.03
2023-04-15T00:51:18.567Z,48.15
2023-04-15T00:52:18.553Z,45.85
2023-04-15T00:53:18.589Z,43.25
2023-04-15T00:54:18.546Z,52.85
2023-04-15T00:55:18.543Z,54.90
2023-04-15T00:56:18.525Z,56.46
2023-04-15T00:57:18.524Z,51.83
2023-04-15T00:58:18.535Z,43.16
2023-04-15T00:59:18.506Z,39.53
2023-04-15T01:00:18.497Z,43.15
2023-04-15T01:01:18.516Z,50.77
2023-04-15T01:02:18.588Z,42.47
2023-04-15T01:03:18.660Z,45.32
2023-04-15T01:04:18.506Z,48.12
2023-04-15T01:05:18.452Z,41.05
2023-04-15T01:06:18.446Z,49.72
2023-04-15T01:07:18.434Z,55.13
2023-04-15T01:08:18.462Z,53.81
2023-04-15T01:09:18.422Z,49.84
2023-04-15T01:10:18.420Z,52.94
2023-04-15T01:11:18.408Z,42.20
2023-04-15T01:12:18.405Z,42.04
2023-04-15T01:13:18.425Z,45.03
2023-04-15T01:14:18.378Z,49.68
2023-04-15T01:15:19.387Z,56.50
2023-04-15T01:16:18.408Z,53.10
2023-04-15T01:17:18.359Z,47.87
2023-04-15T01:18:18.364Z,41.78
2023-04-15T01:19:18.377Z,51.44
2023-04-15T01:20:18.344Z,55.76
2023-04-15T01:21:18.330Z,57.84
2023-04-15T01:22:19.324Z,44.37
2023-04-15T01:23:18.316Z,48.69
2023-04-15T01:24:18.339Z,51.78
2023-04-15T01:25:18.314Z,46.64
2023-04-15T01:26:18.287Z,59.85
2023-04-15T01:27:18.276Z,55.32
2023-04-15T01:28:18.280Z,48.70
2023-04-15T01:29:18.289Z,54.23
2023-04-15T01:30:18.256Z,47.65
2023-04-15T01:31:18.288Z,55.11
2023-04-15T01:32:18.243Z,55.31
2023-04-15T01:33:18.233Z,50.93
2023-04-15T01:34:18.249Z,64.76
2023-04-15T01:35:18.222Z,51.05
2023-04-15T01:36:18.214Z,55.38
2023-04-15T01:37:18.201Z,46.50
2023-04-15T01:38:18.210Z,62.54
2023-04-15T01:39:18.219Z,55.48
2023-04-15T01:40:18.191Z,55.06
2023-04-15T01:41:18.174Z,56.20
2023-04-15T01:42:18.170Z,53.04
2023-04-15T01:43:18.157Z,53.99
2023-04-15T01:44:18.188Z,50.59
2023-04-15T01:45:18.153Z,45.05
2023-04-15T01:46:18.190Z,56.16
2023-04-15T01:47:18.128Z,53.63
2023-04-15T01:48:18.123Z,49.40
2023-04-15T01:49:18.137Z,52.55
2023-04-15T01:50:18.110Z,44.49
2023-04-15T01:51:18.099Z,53.31
2023-04-15T01:52:18.091Z,49.69
2023-04-15T01:53:18.103Z,60.88
2023-04-15T01:54:18.100Z,64.22
2023-04-15T01:55:18.073Z,56.29
2023-04-15T01:56:18.059Z,58.14
2023-04-15T01:57:18.056Z,60.65
2023-04-15T01:58:18.042Z,46.88
2023-04-15T01:59:18.061Z,54.69
2023-04-15T02:00:18.034Z,59.24
2023-04-15T02:01:18.072Z,50.70
2023-04-15T02:02:18.071Z,47.63
2023-04-15T02:03:18.064Z,58.28
2023-04-15T02:04:18.031Z,53.65
2023-04-15T02:05:17.995Z,46.15
2023-04-15T02:06:17.988Z,43.99
2023-04-15T02:07:17.980Z,53.13
2023-04-15T02:08:17.967Z,50.44
2023-04-15T02:09:17.994Z,43.75
2023-04-15T02:10:17.971Z,43.68
2023-04-15T02:11:17.948Z,53.68
2023-04-15T02:12:17.947Z,62.81
2023-04-15T02:13:17.936Z,45.98
2023-04-15T02:14:17.943Z,44.67
2023-04-15T02:15:17.911Z,51.60
2023-04-15T02:16:17.952Z,53.58
2023-04-15T02:17:17.921Z,45.35
2023-04-15T02:18:17.889Z,47.20
2023-04-15T02:19:17.918Z,45.77
2023-04-15T02:20:17.882Z,53.26
2023-04-15T02:21:17.864Z,43.65
2023-04-15T02:22:17.866Z,51.74
2023-04-15T02:23:17.848Z,47.84
2023-04-15T02:24:17.871Z,43.21
2023-04-15T02:25:17.874Z,49.69
2023-04-15T02:26:17.830Z,63.04
2023-04-15T02:27:17.837Z,44.22
2023-04-15T02:28:17.813Z,40.58
2023-04-15T02:29:17.837Z,47.17
2023-04-15T02:30:17.793Z,48.25
2023-04-15T02:31:17.831Z,46.83
2023-04-15T02:32:17.793Z,47.26
2023-04-15T02:33:17.773Z,50.75
2023-04-15T02:34:17.792Z,47.62
2023-04-15T02:35:17.763Z,55.63
2023-04-15T02:36:17.748Z,56.90
2023-04-15T02:37:17.742Z,47.24
2023-04-15T02:38:17.772Z,58.70
2023-04-15T02:39:17.755Z,56.86
2023-04-15T02:40:17.719Z,47.75
2023-04-15T02:41:17.713Z,47.37
2023-04-15T02:42:17.697Z,54.46
2023-04-15T02:43:17.689Z,56.55
2023-04-15T02:44:17.714Z,46.42
2023-04-15T02:45:17.671Z,43.72
2023-04-15T02:46:17.708Z,54.88
2023-04-15T02:47:17.688Z,52.05
2023-04-15T02:48:17.652Z,46.51
2023-04-15T02:49:17.674Z,44.74
2023-04-15T02:50:17.644Z,51.02
2023-04-15T02:51:17.630Z,52.22
2023-04-15T02:52:17.625Z,60.24
2023-04-15T02:53:17.681Z,48.18
2023-04-15T02:54:17.628Z,46.09
2023-04-15T02:55:17.598Z,43.62
2023-04-15T02:56:17.608Z,51.51
2023-04-15T02:57:17.589Z,46.38
2023-04-15T02:58:17.576Z,50.84
2023-04-15T02:59:17.596Z,40.06
2023-04-15T03:00:17.557Z,52.15
2023-04-15T03:01:17.612Z,51.52
2023-04-15T03:02:17.675Z,50.45
2023-04-15T03:03:17.672Z,53.39
2023-04-15T03:04:17.650Z,52.68
2023-04-15T03:05:17.522Z,59.64
2023-04-15T03:06:17.509Z,58.17
2023-04-15T03:07:17.497Z,51.14
2023-04-15T03:08:17.500Z,43.33
2023-04-15T03:09:17.481Z,55.25
2023-04-15T03:10:17.504Z,50.38
2023-04-15T03:11:17.473Z,51.40
2023-04-15T03:12:17.462Z,49.09
2023-04-15T03:13:17.454Z,48.92
2023-04-15T03:14:17.439Z,44.12
2023-04-15T03:15:17.460Z,59.67
2023-04-15T03:16:17.468Z,51.59
2023-04-15T03:17:17.415Z,52.43
2023-04-15T03:18:17.410Z,52.23
2023-04-15T03:19:17.406Z,62.97
2023-04-15T03:20:17.494Z,54.43
2023-04-15T03:21:17.382Z,54.26
2023-04-15T03:22:17.380Z,57.28
2023-04-15T03:23:17.372Z,57.26
2023-04-15T03:24:17.359Z,64.02
2023-04-15T03:25:17.404Z,56.87
2023-04-15T03:26:17.345Z,45.29
2023-04-15T03:27:17.340Z,55.67
2023-04-15T03:28:17.330Z,58.77
2023-04-15T03:29:17.316Z,56.53
2023-04-15T03:30:17.336Z,57.55
2023-04-15T03:31:17.336Z,63.26
2023-04-15T03:32:17.297Z,59.00
2023-04-15T03:33:17.291Z,56.67
2023-04-15T03:34:17.282Z,50.35
2023-04-15T03:35:17.321Z,60.67
2023-04-15T03:36:17.271Z,57.07
2023-04-15T03:37:17.260Z,56.40
2023-04-15T03:38:17.253Z,54.73
2023-04-15T03:39:17.243Z,53.15
2023-04-15T03:40:17.259Z,55.62
2023-04-15T03:41:17.227Z,56.56
2023-04-15T03:42:17.215Z,53.53
2023-04-15T03:43:17.213Z,55.30
2023-04-15T03:44:17.212Z,55.79
2023-04-15T03:45:17.226Z,56.95
2023-04-15T03:46:17.212Z,50.76
2023-04-15T03:47:17.187Z,46.55
2023-04-15T03:48:18.347Z,58.74
2023-04-15T03:49:18.170Z,59.90
2023-04-15T03:50:17.189Z,57.66
2023-04-15T03:51:17.166Z,57.48
2023-04-15T03:52:17.150Z,60.56
2023-04-15T03:53:17.141Z,54.82
2023-04-15T03:54:17.127Z,48.49
2023-04-15T03:55:17.148Z,51.14
2023-04-15T03:56:17.118Z,59.59
2023-04-15T03:57:17.108Z,52.91
2023-04-15T03:58:17.089Z,59.21
2023-04-15T03:59:18.094Z,58.32
2023-04-15T04:00:17.111Z,57.00
2023-04-15T04:01:17.073Z,59.14
2023-04-15T04:02:17.161Z,58.39
2023-04-15T04:03:17.221Z,59.60
2023-04-15T04:04:17.086Z,61.51
2023-04-15T04:05:17.067Z,62.42
2023-04-15T04:06:17.040Z,59.29
2023-04-15T04:07:17.028Z,60.59
2023-04-15T04:08:17.026Z,63.10
2023-04-15T04:09:17.009Z,56.83
2023-04-15T04:10:17.022Z,55.40
2023-04-15T04:11:16.994Z,58.22
2023-04-15T04:12:16.984Z,58.00
2023-04-15T04:13:16.981Z,61.87
2023-04-15T04:14:16.975Z,51.85
2023-04-15T04:15:16.987Z,59.50
2023-04-15T04:16:17.016Z,60.06
2023-04-15T04:17:16.983Z,60.93
2023-04-15T04:18:16.945Z,60.72
2023-04-15T04:19:16.927Z,56.86
2023-04-15T04:20:16.939Z,56.06
2023-04-15T04:21:17.910Z,55.89
2023-04-15T04:22:16.907Z,57.07
2023-04-15T04:23:16.899Z,55.19
2023-04-15T04:24:16.891Z,56.17
2023-04-15T04:25:16.909Z,56.14
2023-04-15T04:26:16.870Z,56.75
2023-04-15T04:27:16.858Z,59.90
2023-04-15T04:28:16.851Z,65.40
2023-04-15T04:29:16.843Z,58.21
2023-04-15T04:30:16.863Z,61.27
2023-04-15T04:31:16.833Z,57.44
2023-04-15T04:32:16.842Z,60.86
2023-04-15T04:33:16.808Z,57.75
2023-04-15T04:34:16.802Z,59.58
2023-04-15T04:35:16.833Z,61.85
2023-04-15T04:36:16.780Z,56.82
2023-04-15T04:37:16.783Z,54.72
2023-04-15T04:38:16.777Z,55.47
2023-04-15T04:39:16.765Z,52.91
2023-04-15T04:40:16.796Z,57.08
2023-04-15T04:41:16.748Z,53.63
2023-04-15T04:42:16.752Z,56.22
2023-04-15T04:43:16.733Z,54.66
2023-04-15T04:44:16.723Z,56.80
2023-04-15T04:45:16.748Z,59.65
2023-04-15T04:46:16.786Z,57.68
2023-04-15T04:47:16.692Z,57.49
2023-04-15T04:48:16.686Z,52.77
2023-04-15T04:49:16.687Z,57.88
2023-04-15T04:50:16.675Z,58.91
2023-04-15T04:51:16.690Z,51.90
2023-04-15T04:52:16.674Z,50.97
2023-04-15T04:53:16.652Z,61.40
2023-04-15T04:54:16.642Z,57.18
2023-04-15T04:55:16.630Z,59.36
2023-04-15T04:56:16.654Z,57.39
2023-04-15T04:57:16.641Z,59.22
2023-04-15T04:58:16.611Z,63.86
2023-04-15T04:59:17.014Z,62.77
2023-04-15T05:00:16.596Z,61.02
2023-04-15T05:01:16.701Z,56.54
2023-04-15T05:02:16.726Z,56.83
2023-04-15T05:03:16.743Z,62.44
2023-04-15T05:04:16.681Z,55.25
2023-04-15T05:05:16.560Z,51.36
2023-04-15T05:06:16.593Z,58.01
2023-04-15T05:07:16.550Z,58.52
2023-04-15T05:08:16.549Z,61.51
2023-04-15T05:09:16.568Z,61.71
2023-04-15T05:10:16.528Z,53.04
2023-04-15T05:11:16.548Z,53.48
2023-04-15T05:12:16.512Z,56.63
2023-04-15T05:13:16.505Z,60.18
2023-04-15T05:14:16.497Z,52.85
2023-04-15T05:15:16.489Z,56.41
2023-04-15T05:16:16.565Z,55.57
2023-04-15T05:17:16.470Z,53.72
2023-04-15T05:18:16.456Z,58.10
2023-04-15T05:19:16.447Z,57.82
2023-04-15T05:20:17.455Z,55.46
2023-04-15T05:21:16.467Z,52.60
2023-04-15T05:22:16.426Z,54.16
2023-04-15T05:23:16.421Z,61.01
2023-04-15T05:24:16.412Z,62.13
2023-04-15T05:25:16.421Z,61.33
2023-04-15T05:26:16.434Z,56.29
2023-04-15T05:27:16.390Z,55.00
2023-04-15T05:28:16.380Z,57.93
2023-04-15T05:29:16.375Z,57.52
2023-04-15T05:30:16.405Z,60.33
2023-04-15T05:31:16.389Z,57.44
2023-04-15T05:32:16.357Z,60.06
2023-04-15T05:33:16.339Z,54.83
2023-04-15T05:34:16.335Z,56.40
2023-04-15T05:35:16.358Z,55.21
2023-04-15T05:36:16.335Z,58.47
2023-04-15T05:37:16.318Z,55.32
2023-04-15T05:38:16.322Z,51.61
2023-04-15T05:39:16.298Z,57.98
2023-04-15T05:40:16.290Z,57.73
2023-04-15T05:41:17.813Z,56.27
2023-04-15T05:42:16.270Z,59.33
2023-04-15T05:43:16.261Z,57.27
2023-04-15T05:44:16.258Z,56.84
2023-04-15T05:45:16.272Z,58.06
2023-04-15T05:46:16.287Z,57.94
2023-04-15T05:47:16.224Z,59.71
2023-04-15T05:48:16.235Z,61.75
2023-04-15T05:49:16.218Z,62.90
2023-04-15T05:50:16.213Z,60.36
2023-04-15T05:51:16.253Z,56.72
2023-04-15T05:52:16.195Z,56.83
2023-04-15T05:53:16.184Z,59.88
2023-04-15T05:54:17.364Z,57.82
2023-04-15T05:55:16.171Z,57.05
2023-04-15T05:56:16.189Z,62.58
2023-04-15T05:57:16.161Z,60.32
2023-04-15T05:58:16.151Z,59.47
2023-04-15T05:59:16.130Z,60.46
2023-04-15T06:00:16.125Z,62.00
2023-04-15T06:01:16.151Z,55.08
2023-04-15T06:02:16.161Z,62.30
2023-04-15T06:03:16.168Z,63.53
2023-04-15T06:04:16.139Z,59.79
2023-04-15T06:05:16.089Z,59.14
2023-04-15T06:06:16.117Z,56.41
2023-04-15T06:07:16.074Z,56.59
2023-04-15T06:08:16.071Z,56.68
2023-04-15T06:09:16.059Z,59.45
2023-04-15T06:10:16.046Z,59.26
2023-04-15T06:11:16.062Z,61.21
2023-04-15T06:12:16.026Z,63.45
2023-04-15T06:13:16.022Z,57.02
2023-04-15T06:14:16.009Z,58.63
2023-04-15T06:15:16.015Z,63.41
2023-04-15T06:16:16.061Z,58.84
2023-04-15T06:17:15.991Z,58.20
2023-04-15T06:18:15.984Z,59.00
2023-04-15T06:19:16.083Z,57.56
2023-04-15T06:20:15.994Z,60.06
2023-04-15T06:21:15.962Z,59.74
2023-04-15T06:22:15.956Z,61.04
2023-04-15T06:23:15.953Z,56.75
2023-04-15T06:24:15.952Z,56.55
2023-04-15T06:25:15.959Z,59.77
2023-04-15T06:26:15.931Z,60.62
2023-04-15T06:27:15.918Z,59.03
2023-04-15T06:28:15.905Z,60.25
2023-04-15T06:29:15.914Z,59.60
2023-04-15T06:30:15.928Z,60.82
2023-04-15T06:31:15.911Z,62.56
2023-04-15T06:32:15.878Z,62.62
2023-04-15T06:33:15.871Z,61.51
2023-04-15T06:34:15.865Z,61.50
2023-04-15T06:35:15.890Z,66.80
2023-04-15T06:36:15.847Z,59.97
2023-04-15T06:37:15.847Z,60.15
2023-04-15T06:38:15.829Z,59.73
2023-04-15T06:39:15.825Z,62.24
2023-04-15T06:40:15.840Z,62.03
2023-04-15T06:41:15.802Z,62.07
2023-04-15T06:42:15.805Z,61.88
2023-04-15T06:43:15.791Z,63.40
2023-04-15T06:44:15.776Z,58.51
2023-04-15T06:45:15.799Z,60.91
2023-04-15T06:46:15.844Z,62.56
2023-04-15T06:47:15.848Z,62.26
2023-04-15T06:48:15.750Z,65.29
2023-04-15T06:49:15.747Z,63.61
2023-04-15T06:50:15.734Z,63.27
2023-04-15T06:51:15.749Z,62.77
2023-04-15T06:52:15.719Z,57.81
2023-04-15T06:53:15.709Z,61.01
2023-04-15T06:54:15.695Z,56.90
2023-04-15T06:55:15.694Z,60.12
2023-04-15T06:56:15.722Z,60.46
2023-04-15T06:57:15.686Z,66.02
2023-04-15T06:58:15.684Z,59.46
2023-04-15T06:59:15.662Z,62.01
2023-04-15T07:00:15.652Z,59.56
2023-04-15T07:01:15.724Z,60.11
2023-04-15T07:02:15.722Z,62.21
2023-04-15T07:03:15.697Z,59.17
2023-04-15T07:04:15.671Z,62.62
2023-04-15T07:05:15.618Z,61.96
2023-04-15T07:06:15.636Z,57.68
2023-04-15T07:07:15.602Z,62.29
2023-04-15T07:08:15.610Z,63.97
2023-04-15T07:09:15.585Z,64.69
2023-04-15T07:10:15.587Z,60.73
2023-04-15T07:11:15.610Z,62.70
2023-04-15T07:12:15.575Z,63.64
2023-04-15T07:13:15.561Z,58.61
2023-04-15T07:14:15.547Z,62.44
2023-04-15T07:15:15.548Z,64.27
2023-04-15T07:16:15.604Z,60.23
2023-04-15T07:17:15.531Z,58.52
2023-04-15T07:18:15.537Z,60.27
2023-04-15T07:19:15.510Z,57.62
2023-04-15T07:20:15.516Z,60.35
2023-04-15T07:21:15.527Z,61.69
2023-04-15T07:22:15.483Z,60.32
2023-04-15T07:23:15.477Z,58.51
2023-04-15T07:24:15.473Z,59.83
2023-04-15T07:25:15.465Z,64.87
2023-04-15T07:26:15.484Z,58.29
2023-04-15T07:27:15.450Z,64.09
2023-04-15T07:28:15.442Z,62.49
2023-04-15T07:29:15.433Z,61.77
2023-04-15T07:30:15.431Z,58.59
2023-04-15T07:31:15.477Z,59.18
2023-04-15T07:32:15.415Z,56.65
2023-04-15T07:33:15.419Z,61.78
2023-04-15T07:34:15.412Z,62.20
2023-04-15T07:35:15.389Z,59.37
2023-04-15T07:36:15.416Z,62.94
2023-04-15T07:37:15.374Z,58.89
2023-04-15T07:38:15.373Z,59.51
2023-04-15T07:39:15.366Z,59.21
2023-04-15T07:40:15.369Z,55.42
2023-04-15T07:41:15.373Z,59.97
2023-04-15T07:42:15.335Z,61.30
2023-04-15T07:43:15.340Z,64.18
2023-04-15T07:44:15.360Z,60.97
2023-04-15T07:45:15.311Z,59.00
2023-04-15T07:46:15.345Z,60.38
2023-04-15T07:47:15.329Z,62.12
2023-04-15T07:48:15.295Z,65.70
2023-04-15T07:49:15.284Z,61.03
2023-04-15T07:50:15.293Z,57.96
2023-04-15T07:51:15.303Z,61.29
2023-04-15T07:52:15.263Z,62.22
2023-04-15T07:53:15.272Z,61.54
2023-04-15T07:54:15.666Z,59.76
2023-04-15T07:55:15.240Z,59.81
2023-04-15T07:56:15.264Z,61.87
2023-04-15T07:57:15.234Z,63.14
2023-04-15T07:58:15.217Z,59.39
2023-04-15T07:59:15.218Z,61.75
2023-04-15T08:00:15.210Z,61.62
2023-04-15T08:01:15.229Z,60.16
2023-04-15T08:02:15.366Z,62.61
2023-04-15T08:03:15.272Z,59.44
2023-04-15T08:04:15.348Z,64.56
2023-04-15T08:05:15.231Z,59.92
2023-04-15T08:06:15.199Z,63.17
2023-04-15T08:07:15.153Z,61.58
2023-04-15T08:08:15.148Z,59.81
2023-04-15T08:09:15.147Z,63.69
2023-04-15T08:10:15.149Z,65.47
2023-04-15T08:11:15.148Z,62.25
2023-04-15T08:12:15.113Z,60.46
2023-04-15T08:13:15.127Z,58.87
2023-04-15T08:14:15.096Z,57.45
2023-04-15T08:15:15.086Z,57.52
2023-04-15T08:16:15.173Z,60.74
2023-04-15T08:17:15.076Z,55.00
2023-04-15T08:18:15.070Z,63.57
2023-04-15T08:19:15.053Z,62.62
2023-04-15T08:20:15.049Z,60.71
2023-04-15T08:21:15.069Z,60.99
2023-04-15T08:22:18.059Z,61.53
2023-04-15T08:23:15.023Z,61.85
2023-04-15T08:24:15.017Z,59.35
2023-04-15T08:25:15.010Z,62.67
2023-04-15T08:26:15.030Z,60.11
2023-04-15T08:27:14.990Z,60.63
2023-04-15T08:28:14.995Z,58.39
2023-04-15T08:29:15.002Z,60.09
2023-04-15T08:30:14.968Z,63.34
2023-04-15T08:31:15.003Z,60.98
2023-04-15T08:32:14.978Z,60.61
2023-04-15T08:33:14.946Z,65.49
2023-04-15T08:34:14.940Z,64.31
2023-04-15T08:35:14.934Z,61.93
2023-04-15T08:36:14.984Z,62.82
2023-04-15T08:37:14.923Z,59.54
2023-04-15T08:38:14.918Z,62.91
2023-04-15T08:39:14.903Z,59.37
2023-04-15T08:40:14.904Z,61.31
2023-04-15T08:41:14.914Z,59.92
2023-04-15T08:42:14.898Z,63.08
2023-04-15T08:43:14.874Z,62.81
2023-04-15T08:44:14.863Z,62.61
2023-04-15T08:45:14.862Z,60.42
2023-04-15T08:46:14.874Z,65.82
2023-04-15T08:47:14.841Z,63.76
2023-04-15T08:48:14.833Z,63.35
2023-04-15T08:49:14.834Z,62.92
2023-04-15T08:50:14.817Z,64.69
2023-04-15T08:51:14.839Z,61.10
2023-04-15T08:52:14.817Z,62.62
2023-04-15T08:53:14.798Z,59.77
2023-04-15T08:54:14.798Z,63.00
2023-04-15T08:55:14.802Z,61.36
2023-04-15T08:56:14.804Z,61.07
2023-04-15T08:57:14.781Z,60.69
2023-04-15T08:58:14.776Z,58.74
2023-04-15T08:59:14.757Z,60.82
2023-04-15T09:00:14.749Z,62.07
2023-04-15T09:01:14.833Z,59.55
2023-04-15T09:02:14.778Z,62.32
2023-04-15T09:03:14.801Z,63.67
2023-04-15T09:04:14.797Z,60.79
2023-04-15T09:05:14.718Z,57.37
2023-04-15T09:06:14.741Z,60.85
2023-04-15T09:07:14.699Z,59.85
2023-04-15T09:08:14.697Z,62.01
2023-04-15T09:09:14.714Z,65.01
2023-04-15T09:10:14.666Z,66.57
2023-04-15T09:11:14.693Z,62.05
2023-04-15T09:12:14.656Z,59.28
2023-04-15T09:13:14.652Z,62.96
2023-04-15T09:14:14.666Z,62.63
2023-04-15T09:15:14.636Z,64.70
2023-04-15T09:16:14.653Z,61.82
2023-04-15T09:17:14.644Z,57.67
2023-04-15T09:18:14.609Z,60.65
2023-04-15T09:19:14.606Z,63.49
2023-04-15T09:20:14.601Z,58.69
2023-04-15T09:21:14.624Z,57.44
2023-04-15T09:22:14.573Z,60.67
2023-04-15T09:23:14.577Z,64.71
2023-04-15T09:24:14.557Z,60.62
2023-04-15T09:25:14.552Z,57.98
2023-04-15T09:26:14.544Z,62.49
2023-04-15T09:27:14.562Z,62.68
2023-04-15T09:28:14.550Z,64.02
2023-04-15T09:29:14.542Z,63.36
2023-04-15T09:30:14.510Z,67.53
2023-04-15T09:31:14.576Z,65.85
2023-04-15T09:32:14.513Z,63.29
2023-04-15T09:33:14.485Z,62.91
2023-04-15T09:34:14.475Z,60.09
2023-04-15T09:35:14.476Z,61.66
2023-04-15T09:36:14.467Z,64.71
2023-04-15T09:37:28.660Z,65.27
2023-04-15T09:38:16.459Z,62.45
2023-04-15T09:39:14.451Z,60.03
2023-04-15T09:40:14.426Z,58.72
2023-04-15T09:41:15.425Z,58.34
2023-04-15T09:42:14.448Z,62.85
2023-04-15T09:43:14.446Z,61.54
2023-04-15T09:44:14.410Z,65.07
2023-04-15T09:45:14.414Z,65.91
2023-04-15T09:46:14.448Z,65.25
2023-04-15T09:47:14.414Z,59.11
2023-04-15T09:48:14.375Z,63.71
2023-04-15T09:49:14.428Z,64.87
2023-04-15T09:50:14.363Z,63.73
2023-04-15T09:51:14.353Z,60.14
2023-04-15T09:52:14.374Z,60.59
2023-04-15T09:53:14.377Z,60.41
2023-04-15T09:54:14.326Z,63.78
2023-04-15T09:55:14.328Z,65.20
2023-04-15T09:56:14.316Z,65.17
2023-04-15T09:57:14.334Z,62.64
2023-04-15T09:58:14.307Z,62.62
2023-04-15T09:59:14.288Z,65.18
2023-04-15T10:00:14.296Z,64.16
2023-04-15T10:01:14.312Z,62.32
2023-04-15T10:02:14.348Z,61.57
2023-04-15T10:03:14.376Z,63.12
2023-04-15T10:04:14.365Z,61.59
2023-04-15T10:05:14.253Z,64.19
2023-04-15T10:06:14.241Z,61.96
2023-04-15T10:07:14.255Z,62.63
2023-04-15T10:08:14.215Z,64.45
2023-04-15T10:09:14.213Z,65.49
2023-04-15T10:10:14.219Z,65.11
2023-04-15T10:11:14.206Z,63.66
2023-04-15T10:12:14.217Z,65.29
2023-04-15T10:13:14.181Z,66.48
2023-04-15T10:14:14.179Z,66.29
2023-04-15T10:15:14.178Z,65.50
2023-04-15T10:16:14.212Z,64.29
2023-04-15T10:17:14.166Z,64.23
2023-04-15T10:18:15.145Z,64.62
2023-04-15T10:19:14.145Z,63.04
2023-04-15T10:20:14.139Z,61.96
2023-04-15T10:21:14.127Z,63.20
2023-04-15T10:22:14.201Z,61.85
2023-04-15T10:23:14.106Z,61.11
2023-04-15T10:24:14.102Z,64.73
2023-04-15T10:25:14.100Z,65.48
2023-04-15T10:26:14.087Z,63.57
2023-04-15T10:27:14.114Z,63.18
2023-04-15T10:28:14.089Z,63.26
2023-04-15T10:29:14.068Z,62.70
2023-04-15T10:30:14.170Z,60.88
2023-04-15T10:31:14.087Z,63.09
2023-04-15T10:32:14.038Z,62.91
2023-04-15T10:33:14.059Z,60.82
2023-04-15T10:34:14.054Z,66.23
2023-04-15T10:35:14.026Z,62.94
2023-04-15T10:36:14.010Z,60.83
2023-04-15T10:37:15.002Z,63.43
2023-04-15T10:38:14.037Z,62.02
2023-04-15T10:39:13.981Z,61.03
2023-04-15T10:40:14.023Z,62.22
2023-04-15T10:41:13.979Z,64.47
2023-04-15T10:42:13.988Z,64.25
2023-04-15T10:43:13.979Z,62.01
2023-04-15T10:44:13.961Z,60.42
2023-04-15T10:45:13.981Z,63.89
2023-04-15T10:46:13.952Z,63.29
2023-04-15T10:47:13.921Z,64.33
2023-04-15T10:48:13.976Z,62.62
2023-04-15T10:49:13.917Z,61.12
2023-04-15T10:50:13.924Z,62.72
2023-04-15T10:51:13.895Z,62.16
2023-04-15T10:52:13.892Z,64.69
2023-04-15T10:53:13.921Z,63.51
2023-04-15T10:54:13.871Z,60.54
2023-04-15T10:55:13.867Z,59.27
2023-04-15T10:56:13.869Z,64.74
2023-04-15T10:57:13.860Z,62.98
2023-04-15T10:58:13.877Z,62.85
2023-04-15T10:59:13.848Z,65.13
2023-04-15T11:00:13.937Z,62.29
2023-04-15T11:01:13.837Z,59.50
2023-04-15T11:02:13.970Z,63.82
2023-04-15T11:03:13.938Z,62.69
2023-04-15T11:04:13.989Z,61.72
2023-04-15T11:05:13.795Z,61.74
2023-04-15T11:06:13.776Z,61.09
2023-04-15T11:07:13.774Z,62.48
2023-04-15T11:08:13.858Z,59.52
2023-04-15T11:09:13.750Z,64.80
2023-04-15T11:10:13.744Z,65.22
2023-04-15T11:11:13.732Z,63.93
2023-04-15T11:12:13.725Z,61.52
2023-04-15T11:13:13.744Z,62.98
2023-04-15T11:14:13.715Z,62.48
2023-04-15T11:15:13.706Z,61.50
2023-04-15T11:16:13.731Z,60.00
2023-04-15T11:17:13.691Z,65.89
2023-04-15T11:18:13.703Z,62.47
2023-04-15T11:19:13.674Z,65.42
2023-04-15T11:20:13.668Z,66.14
2023-04-15T11:21:13.667Z,65.41
2023-04-15T11:22:13.647Z,63.80
2023-04-15T11:23:15.137Z,61.70
2023-04-15T11:24:13.633Z,62.87
2023-04-15T11:25:13.636Z,62.97
2023-04-15T11:26:13.614Z,66.59
2023-04-15T11:27:13.631Z,63.93
2023-04-15T11:28:13.661Z,61.90
2023-04-15T11:29:13.592Z,61.50
2023-04-15T11:30:13.588Z,62.38
2023-04-15T11:31:13.579Z,64.77
2023-04-15T11:32:13.588Z,63.26
2023-04-15T11:33:13.597Z,64.29
2023-04-15T11:34:13.561Z,61.27
2023-04-15T11:35:13.547Z,59.34
2023-04-15T11:36:13.550Z,62.77
2023-04-15T11:37:13.542Z,64.56
2023-04-15T11:38:13.560Z,64.96
2023-04-15T11:39:13.521Z,61.83
2023-04-15T11:40:13.516Z,65.62
2023-04-15T11:41:13.507Z,61.92
2023-04-15T11:42:13.540Z,63.62
2023-04-15T11:43:13.525Z,67.34
2023-04-15T11:44:13.492Z,65.71
2023-04-15T11:45:13.478Z,64.03
2023-04-15T11:46:13.482Z,63.81
2023-04-15T11:47:14.477Z,62.87
2023-04-15T11:48:13.488Z,65.39
2023-04-15T11:49:13.469Z,65.09
2023-04-15T11:50:13.445Z,65.44
2023-04-15T11:51:13.444Z,66.43
2023-04-15T11:52:13.431Z,64.31
2023-04-15T11:53:13.445Z,60.92
2023-04-15T11:54:13.421Z,60.56
2023-04-15T11:55:13.404Z,62.43
2023-04-15T11:56:13.395Z,59.57
2023-04-15T11:57:13.391Z,60.65
2023-04-15T11:58:15.079Z,61.23
2023-04-15T11:59:13.373Z,62.93
2023-04-15T12:00:13.366Z,62.56
2023-04-15T12:01:13.358Z,63.06
2023-04-15T12:02:13.503Z,66.86
2023-04-15T12:03:13.547Z,62.09
2023-04-15T12:04:13.433Z,60.42
2023-04-15T12:05:13.478Z,60.73
2023-04-15T12:06:13.337Z,65.40
2023-04-15T12:07:13.311Z,61.67
2023-04-15T12:08:13.335Z,64.58
2023-04-15T12:09:13.298Z,62.72
2023-04-15T12:10:13.284Z,63.35
2023-04-15T12:11:13.285Z,63.15
2023-04-15T12:12:13.292Z,58.57
2023-04-15T12:13:13.270Z,61.38
2023-04-15T12:14:13.280Z,63.49
2023-04-15T12:15:13.260Z,62.48
2023-04-15T12:16:13.258Z,61.08
2023-04-15T12:17:13.242Z,60.00
2023-04-15T12:18:13.245Z,63.26
2023-04-15T12:19:13.243Z,64.12
2023-04-15T12:20:13.212Z,63.59
2023-04-15T12:21:13.205Z,62.72
2023-04-15T12:22:13.197Z,65.11
2023-04-15T12:23:13.219Z,61.19
2023-04-15T12:24:13.208Z,65.14
2023-04-15T12:25:13.174Z,65.09
2023-04-15T12:26:14.084Z,62.81
2023-04-15T12:27:13.163Z,64.55
2023-04-15T12:28:13.148Z,63.19
2023-04-15T12:29:13.169Z,61.94
2023-04-15T12:30:13.142Z,62.43
2023-04-15T12:31:13.141Z,62.12
2023-04-15T12:32:13.120Z,61.39
2023-04-15T12:33:13.114Z,63.52
2023-04-15T12:34:13.129Z,63.79
2023-04-15T12:35:13.107Z,62.48
2023-04-15T12:36:13.090Z,62.25
2023-04-15T12:37:13.079Z,63.13
2023-04-15T12:38:13.076Z,61.01
2023-04-15T12:39:13.099Z,64.41
2023-04-15T12:40:13.059Z,63.25
2023-04-15T12:41:13.063Z,61.57
2023-04-15T12:42:13.036Z,65.79
2023-04-15T12:43:14.042Z,63.63
2023-04-15T12:44:13.072Z,65.90
2023-04-15T12:45:13.037Z,65.77
2023-04-15T12:46:13.099Z,63.70
2023-04-15T12:47:13.003Z,62.45
2023-04-15T12:48:12.999Z,64.81
2023-04-15T12:49:13.029Z,63.99
2023-04-15T12:50:12.984Z,62.63
2023-04-15T12:51:12.994Z,61.47
2023-04-15T12:52:12.969Z,61.82